Time;durP1;ratioP1;P1;durP2;ratioP2;P2;SDS_P1;SDS_P2;PMS_P1;PMS_P2;Temp;Humidity;BMP_temperature;BMP_pressure;BME280_temperature;BME280_humidity;BME280_pressure;Samples;Min_cycle;Max_cycle;Signal;HPM_P1;HPM_P2
2022/01/17 00:01:35;;;;;;;85.22;42.92;;;26.20;1996.80;;;;;;5057004;28;20064;-60
2022/01/17 00:04:01;;;;;;;96.13;47.22;;;26.20;1945.60;;;;;;5056958;28;20025;-60
2022/01/17 00:06:27;;;;;;;85.93;42.45;;;26.20;1945.60;;;;;;5056872;28;20052;-60
2022/01/17 00:08:53;;;;;;;75.97;38.78;;;26.10;1945.60;;;;;;5056830;28;20415;-60
2022/01/17 00:11:19;;;;;;;72.55;34.85;;;26.20;1971.20;;;;;;5056578;28;20017;-60
2022/01/17 00:13:46;;;;;;;61.38;33.13;;;26.20;1971.20;;;;;;5056393;28;20055;-60
2022/01/17 00:16:20;;;;;;;67.80;34.05;;;26.30;1996.80;;;;;;5056797;28;20501;-60
2022/01/17 00:21:14;;;;;;;63.25;34.22;;;26.50;2073.60;;;;;;5056487;28;20037;-60
2022/01/17 00:23:40;;;;;;;67.10;34.40;;;51.20;2022.40;;;;;;5056625;28;20033;-60
2022/01/17 00:26:06;;;;;;;70.90;36.53;;;51.20;1945.60;;;;;;5056324;28;20053;-60
2022/01/17 00:28:32;;;;;;;68.07;37.22;;;51.20;1945.60;;;;;;5056181;28;20025;-60
2022/01/17 00:31:04;;;;;;;64.75;33.85;;;26.50;1971.20;;;;;;5056268;28;20064;-60
2022/01/17 00:33:31;;;;;;;63.20;32.72;;;26.40;1971.20;;;;;;5056352;28;20025;-60
2022/01/17 00:35:57;;;;;;;52.38;31.50;;;26.40;1971.20;;;;;;5056329;28;20095;-60
2022/01/17 00:38:23;;;;;;;60.00;29.45;;;26.40;1971.20;;;;;;5056133;28;20021;-60
2022/01/17 00:40:48;;;;;;;55.17;29.67;;;26.40;1971.20;;;;;;5056027;28;20057;-60
2022/01/17 00:43:14;;;;;;;56.35;31.73;;;26.30;1971.20;;;;;;5056136;28;20033;-60
2022/01/17 00:45:43;;;;;;;53.95;30.20;;;26.30;1996.80;;;;;;5056172;28;20060;-60
2022/01/17 00:48:09;;;;;;;54.95;31.42;;;26.30;1971.20;;;;;;5056032;28;20036;-60
2022/01/17 00:50:37;;;;;;;53.35;31.67;;;26.30;1996.80;;;;;;5056479;28;20447;-60
2022/01/17 00:53:04;;;;;;;59.90;33.05;;;26.40;2048.00;;;;;;5055857;28;20033;-60
2022/01/17 00:55:32;;;;;;;54.63;31.67;;;51.20;2124.80;;;;;;5055852;28;20164;-60
2022/01/17 00:57:58;;;;;;;59.55;33.40;;;51.40;2099.20;;;;;;5055655;28;20067;-60
2022/01/17 01:00:24;;;;;;;57.70;32.53;;;51.40;2022.40;;;;;;5055761;28;20081;-60
2022/01/17 01:02:50;;;;;;;51.45;31.30;;;51.50;1971.20;;;;;;5055836;28;20107;-60
2022/01/17 01:05:16;;;;;;;54.30;30.52;;;51.30;1971.20;;;;;;5056015;28;20443;-60
2022/01/17 01:07:43;;;;;;;50.72;29.98;;;51.20;1996.80;;;;;;5055594;28;20040;-60
2022/01/17 01:10:12;;;;;;;47.80;28.52;;;51.20;1996.80;;;;;;5055301;28;20112;-60
2022/01/17 01:12:44;;;;;;;48.58;28.88;;;51.20;1971.20;;;;;;5055072;28;20375;-60
2022/01/17 01:15:19;;;;;;;56.47;32.45;;;51.30;1996.80;;;;;;5056111;28;20029;-60
2022/01/17 01:28:22;;;;;;;60.88;35.28;;;51.20;2022.40;;;;;;5055031;28;20048;-60
2022/01/17 01:30:53;;;;;;;57.75;34.47;;;51.30;2150.40;;;;;;5055323;28;20029;-60
2022/01/17 01:33:32;;;;;;;61.63;35.70;;;51.50;2176.00;;;;;;5055459;28;20078;-60
2022/01/17 01:36:04;;;;;;;55.50;31.85;;;51.70;2073.60;;;;;;5055045;28;20470;-60
2022/01/17 01:38:29;;;;;;;51.35;31.08;;;51.80;1996.80;;;;;;5054915;28;20025;-60
2022/01/17 01:40:55;;;;;;;52.95;31.80;;;51.90;1920.00;;;;;;5054928;28;20127;-62
2022/01/17 01:43:21;;;;;;;58.17;34.17;;;51.90;1920.00;;;;;;5054842;28;20025;-60
2022/01/17 01:45:57;;;;;;;59.55;35.53;;;51.90;1920.00;;;;;;5055060;28;20099;-60
2022/01/17 01:48:23;;;;;;;58.08;33.55;;;51.80;1945.60;;;;;;5054739;28;20524;-59
2022/01/17 01:50:49;;;;;;;61.17;35.97;;;51.90;1920.00;;;;;;5055184;28;20426;-60
2022/01/17 01:53:15;;;;;;;62.47;36.28;;;51.80;1920.00;;;;;;5054610;28;20109;-59
2022/01/17 01:55:41;;;;;;;59.47;33.40;;;51.80;1920.00;;;;;;5054808;28;20103;-59
2022/01/17 01:58:08;;;;;;;55.88;33.05;;;51.80;1920.00;;;;;;5054437;28;20421;-59
2022/01/17 02:00:34;;;;;;;62.83;34.42;;;51.90;1920.00;;;;;;5054593;28;20116;-59
2022/01/17 02:03:00;;;;;;;56.90;32.90;;;51.80;1894.40;;;;;;5054631;28;20103;-59
2022/01/17 02:05:26;;;;;;;85.97;39.35;;;51.90;1945.60;;;;;;5054332;28;20037;-59
2022/01/17 02:07:52;;;;;;;62.05;35.65;;;51.90;2150.40;;;;;;5054714;28;20025;-59
2022/01/17 02:10:18;;;;;;;59.55;33.13;;;52.10;2022.40;;;;;;5054397;28;20077;-60
2022/01/17 02:12:44;;;;;;;50.38;29.13;;;52.10;1971.20;;;;;;5054446;28;20487;-59
2022/01/17 02:15:14;;;;;;;51.60;29.83;;;76.90;1894.40;;;;;;5054372;28;20021;-59
2022/01/17 02:17:46;;;;;;;49.88;31.33;;;76.90;1868.80;;;;;;5054105;28;20481;-60
2022/01/17 02:20:21;;;;;;;53.08;30.70;;;76.80;1945.60;;;;;;5053875;28;20078;-61
2022/01/17 02:22:49;;;;;;;54.45;31.00;;;76.90;1920.00;;;;;;5053858;28;20033;-60
2022/01/17 02:25:14;;;;;;;53.95;30.67;;;77.10;1894.40;;;;;;5054122;28;20166;-59
2022/01/17 02:27:41;;;;;;;55.83;32.88;;;77.10;1920.00;;;;;;5053995;28;20119;-60
2022/01/17 02:30:07;;;;;;;50.67;30.25;;;77.20;1920.00;;;;;;5054100;28;20021;-60
2022/01/17 02:32:33;;;;;;;54.70;31.83;;;77.20;1894.40;;;;;;5053796;28;20102;-60
2022/01/17 02:35:29;;;;;;;53.78;31.45;;;77.20;1894.40;;;;;;5053621;28;20024;-60
2022/01/17 02:37:56;;;;;;;58.25;31.52;;;77.20;1894.40;;;;;;5053820;28;20025;-60
2022/01/17 02:40:23;;;;;;;60.58;32.13;;;77.20;1894.40;;;;;;5053943;28;20037;-60
2022/01/17 02:43:02;;;;;;;54.67;32.92;;;77.20;1920.00;;;;;;5053846;28;20029;-60
2022/01/17 02:46:24;;;;;;;59.63;34.22;;;77.20;1920.00;;;;;;5053735;28;20517;-60
2022/01/17 02:48:28;;;;;;;63.50;34.28;;;77.20;1894.40;;;;;;5053605;28;20024;-60
2022/01/17 02:50:54;;;;;;;59.97;34.88;;;77.20;1920.00;;;;;;5053884;28;20028;-60
2022/01/17 02:53:20;;;;;;;60.67;35.22;;;77.30;1894.40;;;;;;5053818;28;20017;-60
2022/01/17 02:55:51;;;;;;;55.40;33.92;;;77.20;1868.80;;;;;;5053816;28;20439;-60
2022/01/17 02:58:19;;;;;;;63.45;36.17;;;77.20;1894.40;;;;;;5053345;28;20418;-60
2022/01/17 03:00:49;;;;;;;69.82;37.38;;;77.40;1920.00;;;;;;5053682;28;20045;-59
2022/01/17 03:03:18;;;;;;;57.25;33.50;;;77.50;1920.00;;;;;;5053885;28;20021;-60
2022/01/17 03:05:44;;;;;;;58.28;35.05;;;77.50;1894.40;;;;;;5053692;28;20028;-60
2022/01/17 03:08:10;;;;;;;55.90;32.80;;;77.60;1843.20;;;;;;5053249;28;20108;-60
2022/01/17 03:10:43;;;;;;;55.53;32.97;;;77.70;1817.60;;;;;;5053600;28;20056;-60
2022/01/17 03:13:29;;;;;;;54.88;32.92;;;77.60;1868.80;;;;;;5053354;28;20048;-59
2022/01/17 03:15:57;;;;;;;55.28;33.25;;;77.70;1894.40;;;;;;5053587;28;20039;-59
2022/01/17 03:18:25;;;;;;;51.92;30.67;;;77.70;1843.20;;;;;;5053565;28;20101;-59
2022/01/17 03:20:51;;;;;;;49.10;30.50;;;77.60;1843.20;;;;;;5053212;28;20043;-59
2022/01/17 03:23:17;;;;;;;53.05;32.30;;;77.70;1868.80;;;;;;5053490;28;20025;-60
2022/01/17 03:25:43;;;;;;;45.92;29.55;;;77.70;1868.80;;;;;;5053456;28;20180;-60
2022/01/17 03:28:09;;;;;;;50.40;30.00;;;77.60;1843.20;;;;;;5053375;28;20032;-59
2022/01/17 03:30:35;;;;;;;45.70;29.30;;;77.60;1843.20;;;;;;5053519;28;20029;-60
2022/01/17 03:33:06;;;;;;;46.53;28.92;;;77.70;1843.20;;;;;;5055452;28;20025;-60
2022/01/17 03:35:32;;;;;;;52.78;29.08;;;77.60;1843.20;;;;;;5057395;28;20052;-59
2022/01/17 03:37:59;;;;;;;53.38;30.30;;;77.70;1868.80;;;;;;5057182;28;20062;-60
2022/01/17 03:40:24;;;;;;;55.10;30.73;;;102.40;1868.80;;;;;;5057120;28;20065;-60
2022/01/17 03:42:50;;;;;;;53.17;31.27;;;77.70;1843.20;;;;;;5057285;28;20048;-59
2022/01/17 03:45:16;;;;;;;54.38;31.08;;;102.40;1843.20;;;;;;5057184;28;20021;-60
2022/01/17 03:47:45;;;;;;;54.33;30.23;;;102.40;1817.60;;;;;;5056985;28;20017;-60
2022/01/17 03:50:17;;;;;;;59.63;30.35;;;77.70;1843.20;;;;;;5057175;28;20025;-59
2022/01/17 03:52:43;;;;;;;48.40;31.02;;;77.70;1843.20;;;;;;5057141;28;20025;-60
2022/01/17 03:55:12;;;;;;;55.15;32.70;;;102.40;1868.80;;;;;;5056879;28;20481;-60
2022/01/17 03:57:38;;;;;;;49.35;30.52;;;102.40;1894.40;;;;;;5056909;28;20071;-59
2022/01/17 04:00:08;;;;;;;50.75;31.40;;;102.40;1868.80;;;;;;5056754;28;20041;-60
2022/01/17 04:02:34;;;;;;;48.80;29.02;;;102.50;1843.20;;;;;;5056977;28;20025;-60
2022/01/17 04:05:00;;;;;;;55.03;32.35;;;102.50;1894.40;;;;;;5056888;28;20467;-63
2022/01/17 04:07:26;;;;;;;54.80;32.17;;;102.50;1843.20;;;;;;5056701;28;20033;-61
2022/01/17 04:09:52;;;;;;;61.33;32.97;;;102.60;1843.20;;;;;;5056262;28;20044;-60
2022/01/17 04:12:17;;;;;;;63.15;34.60;;;102.60;1843.20;;;;;;5056590;28;20025;-61
2022/01/17 04:14:43;;;;;;;63.35;33.88;;;102.70;1868.80;;;;;;5056597;28;20032;-59
2022/01/17 04:17:09;;;;;;;54.22;33.17;;;102.70;1843.20;;;;;;5056726;28;20049;-66
2022/01/17 04:19:35;;;;;;;75.80;34.83;;;102.70;1792.00;;;;;;5056458;28;20029;-59
2022/01/17 04:22:01;;;;;;;56.95;32.60;;;102.70;1843.20;;;;;;5056428;28;20021;-60
2022/01/17 04:24:27;;;;;;;62.13;34.03;;;102.70;1792.00;;;;;;5056620;28;20017;-59
2022/01/17 04:26:53;;;;;;;59.70;34.53;;;102.70;1817.60;;;;;;5056449;28;20420;-59
2022/01/17 04:29:20;;;;;;;60.97;34.78;;;102.60;1843.20;;;;;;5056416;28;20032;-59
2022/01/17 04:31:46;;;;;;;65.93;35.35;;;102.50;1766.40;;;;;;5056333;28;20033;-59
2022/01/17 04:34:12;;;;;;;66.57;34.05;;;102.40;1843.20;;;;;;5056263;28;20470;-60
2022/01/17 04:36:38;;;;;;;64.53;35.97;;;102.40;1792.00;;;;;;5055992;28;20132;-59
2022/01/17 04:39:04;;;;;;;65.38;35.38;;;102.40;1817.60;;;;;;5056031;28;20086;-59
2022/01/17 04:41:39;;;;;;;66.80;35.90;;;102.40;1843.20;;;;;;5055685;28;20363;-60
2022/01/17 04:46:50;;;;;;;67.68;36.00;;;102.40;1843.20;;;;;;5056376;28;20032;-59
2022/01/17 04:49:16;;;;;;;66.95;37.92;;;77.70;1792.00;;;;;;5056030;28;20025;-59
2022/01/17 04:51:42;;;;;;;61.92;36.03;;;77.50;1868.80;;;;;;5056130;28;20440;-59
2022/01/17 04:56:48;;;;;;;66.78;38.33;;;77.40;1868.80;;;;;;5056086;28;20028;-59
2022/01/17 04:59:14;;;;;;;63.33;37.13;;;77.30;1894.40;;;;;;5055145;28;20048;-60
2022/01/17 05:01:40;;;;;;;59.78;35.33;;;77.30;1868.80;;;;;;5055443;28;20489;-60
2022/01/17 05:04:05;;;;;;;68.35;36.80;;;77.30;1894.40;;;;;;5055824;28;20041;-59
2022/01/17 05:06:31;;;;;;;63.72;36.38;;;77.30;1868.80;;;;;;5055743;28;20029;-59
2022/01/17 05:08:58;;;;;;;62.35;36.15;;;77.20;1920.00;;;;;;5055407;28;20025;-59
2022/01/17 05:11:28;;;;;;;68.30;36.78;;;77.20;1920.00;;;;;;5055816;28;20111;-59
2022/01/17 05:13:54;;;;;;;62.92;35.58;;;77.00;1894.40;;;;;;5055429;28;20074;-60
2022/01/17 05:16:21;;;;;;;61.97;36.30;;;77.00;1945.60;;;;;;5055459;28;20025;-59
2022/01/17 05:21:15;;;;;;;66.82;37.97;;;77.20;1920.00;;;;;;5055365;28;20025;-59
2022/01/17 05:23:42;;;;;;;64.70;35.85;;;77.30;1920.00;;;;;;5055675;28;20029;-59
2022/01/17 05:26:08;;;;;;;67.72;37.20;;;77.30;1920.00;;;;;;5055418;28;20025;-59
2022/01/17 05:28:34;;;;;;;63.65;37.08;;;77.30;1920.00;;;;;;5055499;28;20028;-59
2022/01/17 05:31:00;;;;;;;68.80;38.13;;;77.40;1894.40;;;;;;5055141;28;20082;-59
2022/01/17 05:33:26;;;;;;;65.00;37.40;;;77.50;1894.40;;;;;;5055423;28;20039;-60
2022/01/17 05:35:51;;;;;;;65.43;39.15;;;77.60;1894.40;;;;;;5055236;28;20029;-60
2022/01/17 05:38:17;;;;;;;67.95;38.08;;;77.60;1868.80;;;;;;5054995;28;20029;-60
2022/01/17 05:40:43;;;;;;;64.43;37.78;;;77.70;1894.40;;;;;;5055047;28;20095;-60
2022/01/17 05:43:09;;;;;;;64.60;39.00;;;77.70;1868.80;;;;;;5055021;28;20021;-60
2022/01/17 05:45:34;;;;;;;68.35;41.42;;;102.40;1843.20;;;;;;5055221;28;20374;-59
2022/01/17 05:48:00;;;;;;;72.57;43.38;;;102.40;1843.20;;;;;;5054904;28;20111;-59
2022/01/17 05:50:26;;;;;;;85.47;46.78;;;102.40;1843.20;;;;;;5054701;28;20531;-59
2022/01/17 05:52:52;;;;;;;77.50;44.40;;;102.50;1843.20;;;;;;5055017;28;20081;-60
2022/01/17 05:55:17;;;;;;;74.85;43.38;;;102.50;1817.60;;;;;;5054722;28;20485;-60
2022/01/17 05:57:44;;;;;;;69.55;41.42;;;102.50;1843.20;;;;;;5054652;28;20116;-60
2022/01/17 06:00:13;;;;;;;69.53;40.85;;;102.50;1843.20;;;;;;5054545;28;20167;-59
2022/01/17 06:02:38;;;;;;;68.20;40.88;;;102.60;1817.60;;;;;;5054393;28;20115;-60
2022/01/17 06:05:05;;;;;;;68.05;39.67;;;102.60;1843.20;;;;;;5054504;28;20497;-59
2022/01/17 06:07:30;;;;;;;71.45;43.20;;;102.60;1817.60;;;;;;5054454;28;20414;-60
2022/01/17 06:09:56;;;;;;;76.20;47.90;;;102.50;1843.20;;;;;;5054545;28;20036;-60
2022/01/17 06:12:22;;;;;;;75.53;43.42;;;102.40;1868.80;;;;;;5054556;28;20100;-59
2022/01/17 06:14:48;;;;;;;75.40;41.50;;;77.70;1843.20;;;;;;5054330;28;20029;-59
2022/01/17 06:17:13;;;;;;;73.57;44.05;;;102.40;1843.20;;;;;;5054394;28;20025;-60
2022/01/17 06:19:39;;;;;;;76.70;45.72;;;102.40;1868.80;;;;;;5054298;28;20025;-60
2022/01/17 06:22:05;;;;;;;73.90;43.38;;;77.70;1817.60;;;;;;5054289;28;20049;-60
2022/01/17 06:24:31;;;;;;;71.35;43.40;;;102.40;1843.20;;;;;;5054370;28;20319;-60
2022/01/17 06:26:58;;;;;;;77.35;43.40;;;77.70;1843.20;;;;;;5054253;28;20525;-60
2022/01/17 06:29:24;;;;;;;72.55;41.40;;;77.60;1843.20;;;;;;5054152;28;20028;-60
2022/01/17 06:31:50;;;;;;;71.70;40.72;;;77.70;1920.00;;;;;;5054447;28;20021;-60
2022/01/17 06:34:16;;;;;;;70.88;40.75;;;77.70;1894.40;;;;;;5054085;28;20028;-60
2022/01/17 06:36:42;;;;;;;138.57;80.75;;;77.70;1894.40;;;;;;5054049;28;20067;-60
2022/01/17 06:39:10;;;;;;;139.02;81.03;;;77.60;1843.20;;;;;;5053758;28;20040;-60
2022/01/17 06:41:35;;;;;;;144.65;84.50;;;77.60;1868.80;;;;;;5053976;28;20032;-59
2022/01/17 06:44:01;;;;;;;117.20;66.55;;;77.70;1894.40;;;;;;5053886;28;20458;-59
2022/01/17 06:46:29;;;;;;;102.13;58.50;;;77.70;1843.20;;;;;;5053922;28;20033;-59
2022/01/17 06:48:55;;;;;;;103.07;60.05;;;102.40;1971.20;;;;;;5053971;28;20378;-59
2022/01/17 06:51:20;;;;;;;94.13;54.03;;;102.40;1894.40;;;;;;5053960;28;20021;-59
2022/01/17 06:53:48;;;;;;;98.13;57.45;;;77.70;1894.40;;;;;;5053705;28;20100;-59
2022/01/17 06:56:14;;;;;;;83.55;46.67;;;102.40;1894.40;;;;;;5053692;28;20029;-59
2022/01/17 06:58:40;;;;;;;74.40;45.55;;;102.40;1868.80;;;;;;5053518;28;20056;-59
2022/01/17 07:01:06;;;;;;;68.45;40.13;;;102.40;1868.80;;;;;;5053658;28;20041;-59
2022/01/17 07:03:32;;;;;;;68.60;39.58;;;102.40;1868.80;;;;;;5053556;28;20025;-59
2022/01/17 07:05:58;;;;;;;62.00;39.47;;;102.50;1868.80;;;;;;5053705;28;20090;-59
2022/01/17 07:08:24;;;;;;;68.95;41.63;;;102.40;1868.80;;;;;;5053105;28;20092;-59
2022/01/17 07:10:50;;;;;;;68.63;42.58;;;102.50;1868.80;;;;;;5053494;28;20029;-60
2022/01/17 07:13:15;;;;;;;77.80;43.85;;;102.50;1894.40;;;;;;5053428;28;20055;-59
2022/01/17 07:15:41;;;;;;;80.75;47.42;;;102.60;1868.80;;;;;;5053341;28;20067;-60
2022/01/17 07:18:07;;;;;;;76.10;44.92;;;102.50;1894.40;;;;;;5053537;28;20022;-59
2022/01/17 07:20:34;;;;;;;87.70;47.03;;;102.50;1894.40;;;;;;5053544;28;20170;-59
2022/01/17 07:23:00;;;;;;;86.63;48.42;;;102.50;1868.80;;;;;;5053278;28;20021;-59
2022/01/17 07:25:26;;;;;;;93.85;52.88;;;102.40;1868.80;;;;;;5053718;28;20029;-59
2022/01/17 07:27:52;;;;;;;90.38;50.78;;;102.40;1868.80;;;;;;5053369;28;20028;-59
2022/01/17 07:30:18;;;;;;;85.85;48.58;;;102.40;1894.40;;;;;;5053396;28;20021;-60
2022/01/17 07:32:43;;;;;;;91.18;49.20;;;102.40;1894.40;;;;;;5053455;28;20017;-59
2022/01/17 07:35:09;;;;;;;77.93;46.65;;;102.40;1894.40;;;;;;5053292;28;20053;-60
2022/01/17 07:37:36;;;;;;;83.88;46.72;;;77.70;1920.00;;;;;;5053181;28;20021;-60
2022/01/17 07:40:04;;;;;;;87.32;49.25;;;102.40;1920.00;;;;;;5053038;28;20025;-60
2022/01/17 07:42:29;;;;;;;84.30;47.72;;;102.50;1945.60;;;;;;5053546;28;20044;-60
2022/01/17 07:44:58;;;;;;;82.15;48.45;;;102.50;1996.80;;;;;;5053188;28;20025;-60
2022/01/17 07:47:39;;;;;;;91.80;50.08;;;102.60;1996.80;;;;;;5052944;28;20108;-59
2022/01/17 07:50:06;;;;;;;80.70;45.33;;;102.60;2022.40;;;;;;5053131;28;20126;-60
2022/01/17 07:52:33;;;;;;;80.68;46.30;;;102.70;1971.20;;;;;;5053005;28;20028;-60
2022/01/17 07:54:59;;;;;;;90.32;47.20;;;102.70;1945.60;;;;;;5053186;28;20025;-60
2022/01/17 07:57:25;;;;;;;81.70;47.38;;;102.70;1996.80;;;;;;5053094;28;20098;-60
2022/01/17 07:59:50;;;;;;;91.05;48.60;;;102.70;1996.80;;;;;;5052806;28;20045;-60
2022/01/17 08:02:16;;;;;;;91.93;49.03;;;102.70;1996.80;;;;;;5053189;28;20530;-59
2022/01/17 08:04:42;;;;;;;89.88;48.80;;;102.70;1996.80;;;;;;5052973;28;20475;-59
2022/01/17 08:07:07;;;;;;;92.75;51.15;;;102.70;1971.20;;;;;;5053233;28;20100;-60
2022/01/17 08:09:35;;;;;;;99.95;54.10;;;102.80;1996.80;;;;;;5053109;28;20356;-59
2022/01/17 08:12:05;;;;;;;93.43;50.80;;;102.90;2022.40;;;;;;5051714;28;20061;-60
2022/01/17 08:14:31;;;;;;;91.90;49.85;;;102.90;1996.80;;;;;;5052881;28;20028;-60
2022/01/17 08:16:57;;;;;;;77.97;47.20;;;102.90;2022.40;;;;;;5052654;28;20029;-59
2022/01/17 08:19:24;;;;;;;79.93;47.00;;;102.90;1996.80;;;;;;5053884;28;20028;-60
2022/01/17 08:21:52;;;;;;;77.93;45.15;;;103.00;2022.40;;;;;;5056459;28;20090;-60
2022/01/17 08:24:19;;;;;;;88.95;48.50;;;103.00;2022.40;;;;;;5056468;28;20031;-59
2022/01/17 08:26:45;;;;;;;84.35;49.10;;;103.10;2022.40;;;;;;5056688;28;20379;-60
2022/01/17 08:29:12;;;;;;;83.68;47.47;;;103.20;2022.40;;;;;;5056164;28;20033;-60
2022/01/17 08:31:38;;;;;;;82.40;49.10;;;103.20;1996.80;;;;;;5056379;28;20025;-60
2022/01/17 08:34:04;;;;;;;82.93;48.15;;;103.30;2022.40;;;;;;5056115;28;20075;-62
2022/01/17 08:36:30;;;;;;;87.57;49.40;;;128.00;2022.40;;;;;;5056257;28;20033;-60
2022/01/17 08:38:56;;;;;;;79.93;48.88;;;128.00;2048.00;;;;;;5056417;28;20091;-59
2022/01/17 08:41:22;;;;;;;90.10;51.60;;;128.00;2048.00;;;;;;5056222;28;20037;-60
2022/01/17 08:43:48;;;;;;;89.63;49.92;;;128.30;2022.40;;;;;;5056133;28;20029;-60
2022/01/17 08:46:14;;;;;;;88.10;51.53;;;128.40;2022.40;;;;;;5056153;28;20112;-60
2022/01/17 08:48:41;;;;;;;83.05;50.05;;;128.50;1996.80;;;;;;5056155;28;20374;-60
2022/01/17 08:51:07;;;;;;;87.22;50.40;;;128.60;1996.80;;;;;;5056103;28;20029;-59
2022/01/17 08:53:33;;;;;;;81.60;49.60;;;128.80;1996.80;;;;;;5055919;28;20024;-60
2022/01/17 08:55:59;;;;;;;89.40;50.58;;;128.80;1996.80;;;;;;5056005;28;20052;-60
2022/01/17 08:58:25;;;;;;;86.07;49.28;;;128.80;1971.20;;;;;;5055605;28;20029;-59
2022/01/17 09:00:51;;;;;;;79.82;47.05;;;128.90;1971.20;;;;;;5055743;28;20041;-60
2022/01/17 09:03:19;;;;;;;82.38;48.03;;;153.60;1971.20;;;;;;5055577;28;20021;-59
2022/01/17 09:05:45;;;;;;;80.80;47.40;;;153.60;1945.60;;;;;;5055821;28;20048;-60
2022/01/17 09:08:11;;;;;;;75.32;45.58;;;153.70;1971.20;;;;;;5055837;28;20029;-60
2022/01/17 09:10:38;;;;;;;72.63;44.65;;;153.70;1945.60;;;;;;5055785;28;20021;-60
2022/01/17 09:13:07;;;;;;;76.10;44.40;;;153.80;1945.60;;;;;;5055585;28;20086;-60
2022/01/17 09:15:33;;;;;;;88.22;46.47;;;153.80;1945.60;;;;;;5055727;28;20025;-60
2022/01/17 09:17:58;;;;;;;83.25;45.60;;;153.90;1945.60;;;;;;5055579;28;20040;-60
2022/01/17 09:20:24;;;;;;;77.68;47.03;;;153.90;1945.60;;;;;;5055201;28;20029;-60
2022/01/17 09:22:50;;;;;;;98.80;49.50;;;153.80;1945.60;;;;;;5055327;28;20037;-60
2022/01/17 09:25:16;;;;;;;101.18;50.63;;;153.90;1945.60;;;;;;5055532;28;20489;-60
2022/01/17 09:27:42;;;;;;;87.30;45.25;;;153.80;1945.60;;;;;;5055600;28;20498;-62
2022/01/17 09:30:12;;;;;;;77.38;46.03;;;153.90;1945.60;;;;;;5054946;28;20025;-65
2022/01/17 09:32:38;;;;;;;76.43;44.00;;;153.90;1945.60;;;;;;5055397;28;20079;-62
2022/01/17 09:35:05;;;;;;;187.68;94.63;;;154.00;1971.20;;;;;;5054798;28;20348;-67
2022/01/17 09:37:32;;;;;;;149.75;79.82;;;154.00;1920.00;;;;;;5055269;28;20112;-66
2022/01/17 09:39:58;;;;;;;211.10;109.95;;;179.20;2252.80;;;;;;5055007;28;20025;-61
2022/01/17 09:42:24;;;;;;;455.42;252.45;;;179.70;2227.20;;;;;;5055213;28;20035;-61
2022/01/17 09:44:49;;;;;;;277.20;140.40;;;179.50;1920.00;;;;;;5054789;28;20108;-62
2022/01/17 09:47:17;;;;;;;262.83;131.02;;;179.40;1894.40;;;;;;5055054;28;20029;-61
2022/01/17 09:49:49;;;;;;;186.82;101.22;;;179.30;1868.80;;;;;;5054746;28;20029;-61
2022/01/17 09:52:34;;;;;;;216.50;108.93;;;179.30;1894.40;;;;;;5054980;28;20090;-61
2022/01/17 09:55:24;;;;;;;163.77;93.85;;;179.20;1894.40;;;;;;5054708;28;20028;-62
2022/01/17 09:57:53;;;;;;;162.02;94.75;;;179.20;1894.40;;;;;;5054822;28;20025;-61
2022/01/17 10:00:24;;;;;;;102.60;62.95;;;179.20;1894.40;;;;;;5054318;28;20593;-61
2022/01/17 10:02:53;;;;;;;104.93;62.50;;;179.20;1894.40;;;;;;5054895;28;20048;-62
2022/01/17 10:05:19;;;;;;;85.57;53.92;;;179.20;1894.40;;;;;;5054705;28;20021;-62
2022/01/17 10:07:58;;;;;;;72.32;46.45;;;179.20;1894.40;;;;;;5054685;28;20497;-62
2022/01/17 10:10:44;;;;;;;72.07;46.25;;;179.20;1894.40;;;;;;5054451;28;20029;-61
2022/01/17 10:13:20;;;;;;;70.28;41.33;;;179.20;1868.80;;;;;;5054234;28;20430;-61
2022/01/17 10:16:18;;;;;;;65.55;41.53;;;179.20;1894.40;;;;;;5054384;28;20090;-67
2022/01/17 10:18:46;;;;;;;77.50;45.58;;;179.30;1894.40;;;;;;5032256;28;20044;-62
2022/01/17 10:21:43;;;;;;;102.18;60.15;;;179.30;1894.40;;;;;;5032149;28;20448;-62
2022/01/17 10:34:55;;;;;;;79.93;47.95;;;179.30;1894.40;;;;;;5032202;28;20036;-59
2022/01/17 10:37:24;;;;;;;70.72;42.85;;;179.30;1894.40;;;;;;5032234;28;20090;-59
2022/01/17 10:40:02;;;;;;;68.43;41.45;;;179.30;1894.40;;;;;;5031973;28;20521;-60
2022/01/17 10:42:39;;;;;;;72.47;41.63;;;179.40;1868.80;;;;;;5031362;28;20044;-59
2022/01/17 10:45:07;;;;;;;66.70;39.85;;;179.40;1868.80;;;;;;5032001;28;20021;-61
2022/01/17 10:47:37;;;;;;;67.28;41.95;;;179.40;1868.80;;;;;;5031629;28;20125;-59
2022/01/17 10:50:15;;;;;;;66.15;40.38;;;179.30;1868.80;;;;;;5031828;28;20025;-60
2022/01/17 10:52:43;;;;;;;69.35;39.13;;;179.40;1894.40;;;;;;5031799;28;20151;-58
2022/01/17 10:55:30;;;;;;;62.05;38.55;;;179.40;1868.80;;;;;;5045539;28;20037;-59
2022/01/17 10:58:02;;;;;;;55.05;33.30;;;179.50;1894.40;;;;;;5060265;28;20107;-59
2022/01/17 11:00:43;;;;;;;62.72;35.22;;;179.50;1843.20;;;;;;5053571;28;20135;-60
2022/01/17 11:03:12;;;;;;;52.05;33.72;;;179.50;1868.80;;;;;;5053456;28;20056;-59
2022/01/17 11:05:44;;;;;;;60.63;37.58;;;179.50;1868.80;;;;;;5053614;28;20075;-59
2022/01/17 11:08:10;;;;;;;61.60;34.67;;;179.50;1868.80;;;;;;5053750;28;20059;-59
2022/01/17 11:10:41;;;;;;;61.63;36.50;;;179.60;1868.80;;;;;;5053580;28;20064;-59
2022/01/17 11:13:11;;;;;;;60.15;35.83;;;179.60;1868.80;;;;;;5058782;28;20032;-59
2022/01/17 11:15:38;;;;;;;54.88;33.25;;;179.70;1868.80;;;;;;5074257;28;20078;-59
2022/01/17 11:18:17;;;;;;;55.55;33.70;;;179.70;1868.80;;;;;;5073258;28;20032;-60
2022/01/17 11:20:44;;;;;;;52.42;32.10;;;179.70;1868.80;;;;;;5073714;28;20111;-60
2022/01/17 11:23:10;;;;;;;55.22;32.15;;;179.80;1868.80;;;;;;5073647;28;20028;-59
2022/01/17 11:25:38;;;;;;;48.38;31.30;;;179.80;1894.40;;;;;;5073653;28;20035;-64
2022/01/17 11:28:06;;;;;;;43.70;28.75;;;179.90;1868.80;;;;;;5073682;28;20029;-66
2022/01/17 11:30:34;;;;;;;57.58;35.97;;;179.90;1868.80;;;;;;5073451;28;20085;-64
2022/01/17 11:33:06;;;;;;;75.50;48.40;;;180.00;1843.20;;;;;;5073369;28;20417;-63
2022/01/17 11:35:34;;;;;;;133.85;72.18;;;180.10;1843.20;;;;;;5073602;28;20366;-64
2022/01/17 11:38:02;;;;;;;160.27;89.28;;;180.10;1843.20;;;;;;5073497;28;20470;-68
2022/01/17 11:40:33;;;;;;;92.78;57.22;;;204.80;1843.20;;;;;;5073378;28;20032;-64
2022/01/17 11:43:00;;;;;;;93.13;57.03;;;204.80;1817.60;;;;;;5073598;28;20025;-65
2022/01/17 11:45:29;;;;;;;68.18;40.15;;;204.90;1843.20;;;;;;5063068;28;20075;-65
2022/01/17 11:48:07;;;;;;;57.42;34.63;;;204.90;1817.60;;;;;;5073035;28;20035;-66
2022/01/17 11:50:37;;;;;;;54.75;36.80;;;204.90;1817.60;;;;;;5073053;28;20023;-66
2022/01/17 11:53:12;;;;;;;46.53;30.60;;;205.00;1843.20;;;;;;5073067;28;20029;-66
2022/01/17 11:55:43;;;;;;;;;;;205.10;1817.60;;;;;;5077534;28;20020;-66
2022/01/17 11:58:29;;;;;;;37.90;25.48;;;205.10;1817.60;;;;;;5076921;28;19905;-67
2022/01/17 12:00:57;;;;;;;39.88;24.25;;;205.20;1817.60;;;;;;5076573;28;20502;-66
2022/01/17 12:03:40;;;;;;;39.15;25.02;;;205.20;1817.60;;;;;;5076823;28;20395;-67
2022/01/17 12:06:36;;;;;;;41.55;26.92;;;205.20;1792.00;;;;;;5076881;28;20062;-66
2022/01/17 12:09:20;;;;;;;42.38;28.17;;;205.30;1792.00;;;;;;5076805;28;20020;-65
2022/01/17 12:12:06;;;;;;;41.92;27.27;;;205.30;1792.00;;;;;;5076470;28;20025;-65
2022/01/17 12:14:35;;;;;;;41.63;26.20;;;205.30;1792.00;;;;;;5053991;28;20029;-71
2022/01/17 12:17:19;;;;;;;40.70;26.08;;;205.30;1792.00;;;;;;5054315;28;20029;-68
2022/01/17 12:20:06;;;;;;;40.53;27.30;;;205.30;1766.40;;;;;;5054489;28;20033;-71
2022/01/17 12:22:47;;;;;;;40.25;27.17;;;205.40;1792.00;;;;;;5054208;28;20409;-68
2022/01/17 12:25:26;;;;;;;39.80;25.77;;;205.40;1766.40;;;;;;5054162;28;20047;-67
2022/01/17 12:28:18;;;;;;;37.47;24.10;;;205.40;1792.00;;;;;;5054340;28;20029;-67
2022/01/17 12:30:54;;;;;;;40.47;25.42;;;205.50;1792.00;;;;;;5053795;28;20033;-67
2022/01/17 12:33:31;;;;;;;38.20;24.33;;;205.50;1792.00;;;;;;5054119;28;20417;-67
2022/01/17 12:36:00;;;;;;;39.35;25.40;;;205.50;1792.00;;;;;;5054180;28;20025;-67
2022/01/17 12:38:31;;;;;;;36.75;24.77;;;205.60;1792.00;;;;;;5053901;28;20037;-66
2022/01/17 12:40:59;;;;;;;42.17;26.17;;;205.60;1792.00;;;;;;5053808;28;20438;-67